Terminal Aerodrome Forecast
Issued by NWS Portland, OR

Home | Current Version | Previous Version | Text Only | Print | Product List | Glossary On
Versions: 1 2 3 4 5 6 7 8 9 10 11 12 13 14 15 16 17
000
FTUS46 KPQR 182322
TAFSLE
TAF
KSLE 182322Z 1900/1924 17008KT P6SM -SHRA SCT025 OVC060
     FM190300 18009KT 6SM -RA BKN025
     FM190800 18010KT P6SM -SHRA SCT025 OVC060
     FM191500 18011KT P6SM -SHRA BKN025 BKN035
     FM192000 18014KT P6SM OVC050=

USA.gov is the U.S. government's official web portal to all federal, state and local government web resources and services.